Terminal Aerodrome Forecast
Issued by NWS

Home | Current Version | Previous Version | Text Only | Print | Product List | Glossary On
Versions: 1 2 3 4 5 6 7 8 9 10 11 12 13 14 15 16 17 18 19 20 21 22 23
714
FTUS43 KGRR 131740
TAFBTL
TAF
KBTL 131740Z 1318/1418 14012G18KT 6SM -SN BR OVC035
     FM132000 16010KT 3SM -SN BR OVC025
      TEMPO 1320/1323 2SM -SN OVC015
     FM132300 02011KT P6SM -SN BKN070
     FM140600 01010KT P6SM OVC050=

USA.gov is the U.S. government's official web portal to all federal, state and local government web resources and services.